createdAt,value
2018-09-11T00:01:10.841Z,4.23
2018-09-11T00:03:39.420Z,4.13
2018-09-11T00:06:08.061Z,3.80
2018-09-11T00:08:36.902Z,3.67
2018-09-11T00:11:05.433Z,3.43
2018-09-11T00:13:33.952Z,3.77
2018-09-11T00:16:02.473Z,3.60
2018-09-11T00:18:31.076Z,3.53
2018-09-11T00:20:59.552Z,3.87
2018-09-11T00:23:28.069Z,4.23
2018-09-11T00:25:56.812Z,3.73
2018-09-11T00:28:25.360Z,3.63
2018-09-11T00:30:54.313Z,3.90
2018-09-11T00:33:22.989Z,4.23
2018-09-11T00:35:51.669Z,3.60
2018-09-11T00:38:20.188Z,4.23
2018-09-11T00:40:48.767Z,3.93
2018-09-11T00:43:17.569Z,4.10
2018-09-11T00:45:46.180Z,4.20
2018-09-11T00:48:14.717Z,3.73
2018-09-11T00:50:43.292Z,4.27
2018-09-11T00:53:11.825Z,4.33
2018-09-11T00:55:40.573Z,4.10
2018-09-11T00:58:09.083Z,4.33
2018-09-11T01:00:37.569Z,4.03
2018-09-11T01:03:06.324Z,4.20
2018-09-11T01:05:34.819Z,4.50
2018-09-11T01:08:03.449Z,4.17
2018-09-11T01:10:31.949Z,4.30
2018-09-11T01:13:00.482Z,4.30
2018-09-11T01:15:29.289Z,4.27
2018-09-11T01:17:57.936Z,5.07
2018-09-11T01:20:26.445Z,4.60
2018-09-11T01:22:54.990Z,4.60
2018-09-11T01:25:23.776Z,4.30
2018-09-11T01:27:52.337Z,4.30
2018-09-11T01:30:22.350Z,4.10
2018-09-11T01:32:52.112Z,4.93
2018-09-11T01:35:21.597Z,4.30
2018-09-11T01:37:50.113Z,4.60
2018-09-11T01:40:18.823Z,4.70
2018-09-11T01:42:47.995Z,5.17
2018-09-11T01:45:16.521Z,4.53
2018-09-11T01:47:45.352Z,5.10
2018-09-11T01:50:14.121Z,5.00
2018-09-11T01:52:42.596Z,4.43
2018-09-11T01:55:11.109Z,4.90
2018-09-11T01:57:40.113Z,4.43
2018-09-11T02:00:12.884Z,4.60
2018-09-11T02:02:41.361Z,4.83
2018-09-11T02:05:09.872Z,4.67
2018-09-11T02:07:38.445Z,4.90
2018-09-11T02:10:07.080Z,4.80
2018-09-11T02:12:35.788Z,4.43
2018-09-11T02:15:04.424Z,15.60
2018-09-11T02:17:33.356Z,4.70
2018-09-11T02:20:02.523Z,5.37
2018-09-11T02:22:31.509Z,5.23
2018-09-11T02:24:59.997Z,5.20
2018-09-11T02:27:28.873Z,5.60
2018-09-11T02:29:57.492Z,5.10
2018-09-11T02:32:26.243Z,5.27
2018-09-11T02:34:55.273Z,5.33
2018-09-11T02:37:24.013Z,4.67
2018-09-11T02:39:52.609Z,4.80
2018-09-11T02:42:21.300Z,4.50
2018-09-11T02:44:49.908Z,5.93
2018-09-11T02:47:18.397Z,5.97
2018-09-11T02:49:47.070Z,5.57
2018-09-11T02:52:16.509Z,5.30
2018-09-11T02:54:45.195Z,5.40
2018-09-11T02:57:13.628Z,5.40
2018-09-11T02:59:42.085Z,5.67
2018-09-11T03:02:10.539Z,5.70
2018-09-11T03:04:39.272Z,5.47
2018-09-11T03:07:07.800Z,5.40
2018-09-11T03:09:36.224Z,5.40
2018-09-11T03:12:04.757Z,5.63
2018-09-11T03:14:33.268Z,5.30
2018-09-11T03:17:01.895Z,5.60
2018-09-11T03:19:30.349Z,5.03
2018-09-11T03:21:58.836Z,5.40
2018-09-11T03:24:27.300Z,5.40
2018-09-11T03:26:55.752Z,5.60
2018-09-11T03:29:24.268Z,5.33
2018-09-11T03:31:52.707Z,6.07
2018-09-11T03:34:21.449Z,5.97
2018-09-11T03:36:49.893Z,5.90
2018-09-11T03:39:18.908Z,5.80
2018-09-11T03:41:47.384Z,5.43
2018-09-11T03:44:15.879Z,5.37
2018-09-11T03:46:44.295Z,6.20
2018-09-11T03:49:12.744Z,5.30
2018-09-11T03:51:41.224Z,5.43
2018-09-11T03:54:09.687Z,5.40
2018-09-11T03:56:38.133Z,5.53
2018-09-11T03:59:06.875Z,6.23
2018-09-11T04:01:35.440Z,5.57
2018-09-11T04:04:03.996Z,5.70
2018-09-11T04:06:32.448Z,5.80
2018-09-11T04:09:01.024Z,5.97
2018-09-11T04:11:29.588Z,5.80
2018-09-11T04:13:58.105Z,6.03
2018-09-11T04:16:26.875Z,5.63
2018-09-11T04:18:55.472Z,5.30
2018-09-11T04:21:23.927Z,4.93
2018-09-11T04:23:52.380Z,5.53
2018-09-11T04:26:20.928Z,5.53
2018-09-11T04:28:49.467Z,5.50
2018-09-11T04:31:17.996Z,5.70
2018-09-11T04:33:46.517Z,5.53
2018-09-11T04:36:15.040Z,5.40
2018-09-11T04:38:43.533Z,5.40
2018-09-11T04:41:12.207Z,5.30
2018-09-11T04:43:40.670Z,6.37
2018-09-11T04:46:11.425Z,5.90
2018-09-11T04:48:41.050Z,6.13
2018-09-11T04:51:09.488Z,5.40
2018-09-11T04:53:38.200Z,6.67
2018-09-11T04:56:06.942Z,5.97
2018-09-11T04:58:35.563Z,5.60
2018-09-11T05:01:04.021Z,6.37
2018-09-11T05:03:32.517Z,7.07
2018-09-11T05:06:00.987Z,6.23
2018-09-11T05:08:29.604Z,5.70
2018-09-11T05:10:58.199Z,5.67
2018-09-11T05:13:26.677Z,5.53
2018-09-11T05:15:55.215Z,5.93
2018-09-11T05:18:23.707Z,6.00
2018-09-11T05:20:52.360Z,5.90
2018-09-11T05:23:20.799Z,5.47
2018-09-11T05:25:49.256Z,5.97
2018-09-11T05:28:17.723Z,6.03
2018-09-11T05:30:46.208Z,6.57
2018-09-11T05:33:14.711Z,5.70
2018-09-11T05:35:43.255Z,11.10
2018-09-11T05:38:11.847Z,5.97
2018-09-11T05:40:40.360Z,6.43
2018-09-11T05:43:08.841Z,6.67
2018-09-11T05:45:37.607Z,7.00
2018-09-11T05:48:06.356Z,7.00
2018-09-11T05:50:34.859Z,6.90
2018-09-11T05:53:03.290Z,6.77
2018-09-11T05:55:31.748Z,6.77
2018-09-11T05:58:00.183Z,6.57
2018-09-11T06:00:28.646Z,7.10
2018-09-11T06:02:57.124Z,6.27
2018-09-11T06:05:25.636Z,7.13
2018-09-11T06:07:54.084Z,7.43
2018-09-11T06:10:22.552Z,6.97
2018-09-11T06:12:51.011Z,6.90
2018-09-11T06:15:19.465Z,7.40
2018-09-11T06:17:47.968Z,7.43
2018-09-11T06:20:16.471Z,7.37
2018-09-11T06:22:44.904Z,7.87
2018-09-11T06:25:13.428Z,7.50
2018-09-11T06:27:41.868Z,7.40
2018-09-11T06:30:10.335Z,7.63
2018-09-11T06:32:38.792Z,7.50
2018-09-11T06:35:07.349Z,7.97
2018-09-11T06:37:35.831Z,8.20
2018-09-11T06:40:05.367Z,8.73
2018-09-11T06:42:33.971Z,7.67
2018-09-11T06:45:02.439Z,7.73
2018-09-11T06:47:30.896Z,7.93
2018-09-11T06:49:59.335Z,7.77
2018-09-11T06:52:27.819Z,8.00
2018-09-11T06:54:56.263Z,7.73
2018-09-11T06:57:24.924Z,8.03
2018-09-11T06:59:53.359Z,7.60
2018-09-11T07:02:21.813Z,8.60
2018-09-11T07:04:50.292Z,8.50
2018-09-11T07:07:18.743Z,8.43
2018-09-11T07:09:47.223Z,7.50
2018-09-11T07:12:15.743Z,8.00
2018-09-11T07:14:44.263Z,7.83
2018-09-11T07:17:12.692Z,7.00
2018-09-11T07:19:41.256Z,7.30
2018-09-11T07:22:09.740Z,7.20
2018-09-11T07:24:38.360Z,6.73
2018-09-11T07:27:06.832Z,6.77
2018-09-11T07:29:35.320Z,6.83
2018-09-11T07:32:03.803Z,7.67
2018-09-11T07:34:32.236Z,6.17
2018-09-11T07:37:00.703Z,6.10
2018-09-11T07:39:29.156Z,5.67
2018-09-11T07:41:57.744Z,6.33
2018-09-11T07:44:26.208Z,6.10
2018-09-11T07:46:54.676Z,6.50
2018-09-11T07:49:24.139Z,5.90
2018-09-11T07:51:52.893Z,6.00
2018-09-11T07:54:21.360Z,6.43
2018-09-11T07:56:49.812Z,6.23
2018-09-11T07:59:18.324Z,6.97
2018-09-11T08:01:46.799Z,6.10
2018-09-11T08:04:15.268Z,5.10
2018-09-11T08:06:43.844Z,5.93
2018-09-11T08:09:13.339Z,4.83
2018-09-11T08:11:41.768Z,5.53
2018-09-11T08:14:10.496Z,5.50
2018-09-11T08:16:38.989Z,5.60
2018-09-11T08:19:07.560Z,5.10
2018-09-11T08:21:36.142Z,5.53
2018-09-11T08:24:04.607Z,5.10
2018-09-11T08:26:33.069Z,5.07
2018-09-11T08:29:01.531Z,4.47
2018-09-11T08:31:30.004Z,4.60
2018-09-11T08:33:58.476Z,3.67
2018-09-11T08:36:27.082Z,3.57
2018-09-11T08:38:55.533Z,3.90
2018-09-11T08:41:23.996Z,3.00
2018-09-11T08:43:52.816Z,3.07
2018-09-11T08:46:21.242Z,3.00
2018-09-11T08:48:49.744Z,3.03
2018-09-11T08:51:18.196Z,3.40
2018-09-11T08:53:46.668Z,3.10
2018-09-11T08:56:15.204Z,3.57
2018-09-11T08:58:43.697Z,3.07
2018-09-11T09:01:12.132Z,3.83
2018-09-11T09:03:40.561Z,3.80
2018-09-11T09:06:09.020Z,3.60
2018-09-11T09:08:37.451Z,3.00
2018-09-11T09:11:05.959Z,2.80
2018-09-11T09:13:34.392Z,2.40
2018-09-11T09:16:02.859Z,2.57
2018-09-11T09:18:31.396Z,2.50
2018-09-11T09:20:59.864Z,2.70
2018-09-11T09:23:28.359Z,2.33
2018-09-11T09:25:57.183Z,2.40
2018-09-11T09:28:25.685Z,2.03
2018-09-11T09:30:54.127Z,1.90
2018-09-11T09:33:22.896Z,2.37
2018-09-11T09:35:51.499Z,2.40
2018-09-11T09:38:20.292Z,2.80
2018-09-11T09:40:49.042Z,2.50
2018-09-11T09:43:17.759Z,2.30
2018-09-11T09:45:46.192Z,2.50
2018-09-11T09:48:15.144Z,2.20
2018-09-11T09:50:43.637Z,1.90
2018-09-11T09:53:12.269Z,2.07
2018-09-11T09:55:41.068Z,1.90
2018-09-11T09:58:09.964Z,2.30
2018-09-11T10:00:43.904Z,2.03
2018-09-11T10:03:12.373Z,1.63
2018-09-11T10:05:41.036Z,1.70
2018-09-11T10:08:09.483Z,1.97
2018-09-11T10:10:38.177Z,1.73
2018-09-11T10:13:06.652Z,1.57
2018-09-11T10:15:35.099Z,1.57
2018-09-11T10:18:03.608Z,1.47
2018-09-11T10:20:32.691Z,1.40
2018-09-11T10:23:01.468Z,1.60
2018-09-11T10:25:30.163Z,1.40
2018-09-11T10:27:58.832Z,1.40
2018-09-11T10:30:27.294Z,1.47
2018-09-11T10:32:55.777Z,1.80
2018-09-11T10:35:24.447Z,1.60
2018-09-11T10:37:52.943Z,1.20
2018-09-11T10:40:21.514Z,1.35
2018-09-11T10:42:50.084Z,1.57
2018-09-11T10:45:18.763Z,1.30
2018-09-11T10:47:47.256Z,1.10
2018-09-11T10:50:16.200Z,1.30
2018-09-11T10:52:44.682Z,1.32
2018-09-11T10:55:13.192Z,1.32
2018-09-11T10:57:41.648Z,1.10
2018-09-11T11:00:10.096Z,1.00
2018-09-11T11:02:38.564Z,1.47
2018-09-11T11:05:07.192Z,1.37
2018-09-11T11:07:35.704Z,1.95
2018-09-11T11:10:04.338Z,1.15
2018-09-11T11:12:32.772Z,1.60
2018-09-11T11:15:01.222Z,1.20
2018-09-11T11:17:30.244Z,1.45
2018-09-11T11:19:58.766Z,1.50
2018-09-11T11:22:27.204Z,1.25
2018-09-11T11:24:55.659Z,1.30
2018-09-11T11:27:24.089Z,1.32
2018-09-11T11:29:52.556Z,1.35
2018-09-11T11:32:21.700Z,1.20
2018-09-11T11:34:50.272Z,1.30
2018-09-11T11:37:18.968Z,1.35
2018-09-11T11:39:47.287Z,1.20
2018-09-11T11:42:16.280Z,1.50
2018-09-11T11:44:45.223Z,1.30
2018-09-11T11:47:13.661Z,1.67
2018-09-11T11:49:42.181Z,1.30
2018-09-11T11:52:11.379Z,1.30
2018-09-11T11:54:39.934Z,1.40
2018-09-11T11:57:08.830Z,1.50
2018-09-11T11:59:37.521Z,1.63
2018-09-11T12:02:06.035Z,1.60
2018-09-11T12:04:34.516Z,1.40
2018-09-11T12:07:03.715Z,1.57
2018-09-11T12:09:32.418Z,1.60
2018-09-11T12:12:00.858Z,1.40
2018-09-11T12:14:29.324Z,1.60
2018-09-11T12:16:57.868Z,1.60
2018-09-11T12:19:26.610Z,1.50
2018-09-11T12:21:55.837Z,1.47
2018-09-11T12:24:24.299Z,1.47
2018-09-11T12:26:53.554Z,1.50
2018-09-11T12:29:22.636Z,1.60
2018-09-11T12:31:51.074Z,1.83
2018-09-11T12:34:20.456Z,2.00
2018-09-11T12:36:48.960Z,1.50
2018-09-11T12:39:17.418Z,1.60
2018-09-11T12:41:45.923Z,1.67
2018-09-11T12:44:15.121Z,1.70
2018-09-11T12:46:44.005Z,1.77
2018-09-11T12:49:12.186Z,2.10
2018-09-11T12:51:41.029Z,1.90
2018-09-11T12:54:09.969Z,1.97
2018-09-11T12:56:38.423Z,1.70
2018-09-11T12:59:07.020Z,1.70
2018-09-11T13:01:35.484Z,1.60
2018-09-11T13:04:04.092Z,1.80
2018-09-11T13:06:33.215Z,1.97
2018-09-11T13:09:01.673Z,1.63
2018-09-11T13:11:30.136Z,1.80
2018-09-11T13:13:58.569Z,2.07
2018-09-11T13:16:27.007Z,1.60
2018-09-11T13:18:55.465Z,1.50
2018-09-11T13:21:24.060Z,1.53
2018-09-11T13:23:52.532Z,1.63
2018-09-11T13:26:20.966Z,2.00
2018-09-11T13:28:49.824Z,1.80
2018-09-11T13:31:18.330Z,1.70
2018-09-11T13:33:47.197Z,1.67
2018-09-11T13:36:15.612Z,1.70
2018-09-11T13:38:44.060Z,1.87
2018-09-11T13:41:12.536Z,2.00
2018-09-11T13:43:41.580Z,1.50
2018-09-11T13:46:10.061Z,1.97
2018-09-11T13:48:39.000Z,1.93
2018-09-11T13:51:07.467Z,2.17
2018-09-11T13:53:35.919Z,1.93
2018-09-11T13:56:04.715Z,2.00
2018-09-11T13:58:33.655Z,2.00
2018-09-11T14:01:02.484Z,2.10
2018-09-11T14:03:31.028Z,2.47
2018-09-11T14:06:00.052Z,2.20
2018-09-11T14:08:28.556Z,2.10
2018-09-11T14:10:56.980Z,2.27
2018-09-11T14:13:25.719Z,2.50
2018-09-11T14:15:55.298Z,2.33
2018-09-11T14:18:23.720Z,2.30
2018-09-11T14:20:52.176Z,2.20
2018-09-11T14:23:21.032Z,2.37
2018-09-11T14:25:49.707Z,2.00
2018-09-11T14:28:18.207Z,2.30
2018-09-11T14:30:46.699Z,2.03
2018-09-11T14:33:15.408Z,2.50
2018-09-11T14:35:44.515Z,2.20
2018-09-11T14:38:13.041Z,2.47
2018-09-11T14:40:41.470Z,2.30
2018-09-11T14:43:10.651Z,2.47
2018-09-11T14:45:39.172Z,2.30
2018-09-11T14:48:08.332Z,2.00
2018-09-11T14:50:36.816Z,2.23
2018-09-11T14:53:05.303Z,2.20
2018-09-11T14:55:33.996Z,2.20
2018-09-11T14:58:02.468Z,2.63
2018-09-11T15:00:30.910Z,2.50
2018-09-11T15:02:59.555Z,2.83
2018-09-11T15:05:28.025Z,2.30
2018-09-11T15:07:57.207Z,2.47
2018-09-11T15:10:25.804Z,2.77
2018-09-11T15:12:54.279Z,2.50
2018-09-11T15:15:22.859Z,2.20
2018-09-11T15:17:51.981Z,2.60
2018-09-11T15:20:20.451Z,2.40
2018-09-11T15:22:48.896Z,2.60
2018-09-11T15:25:18.012Z,2.47
2018-09-11T15:27:46.988Z,2.50
2018-09-11T15:30:15.430Z,2.80
2018-09-11T15:32:43.964Z,2.90
2018-09-11T15:35:12.445Z,2.70
2018-09-11T15:37:40.881Z,3.00
2018-09-11T15:40:09.384Z,2.50
2018-09-11T15:42:38.092Z,2.27
2018-09-11T15:45:07.213Z,2.70
2018-09-11T15:47:35.666Z,3.20
2018-09-11T15:50:04.141Z,2.50
2018-09-11T15:52:33.320Z,2.30
2018-09-11T15:55:02.240Z,2.50
2018-09-11T15:57:30.698Z,2.73
2018-09-11T15:59:59.134Z,2.80
2018-09-11T16:02:27.782Z,2.60
2018-09-11T16:04:56.820Z,2.50
2018-09-11T16:07:25.268Z,2.63
2018-09-11T16:09:53.943Z,2.30
2018-09-11T16:12:22.819Z,2.43
2018-09-11T16:14:51.278Z,2.40
2018-09-11T16:17:19.721Z,2.60
2018-09-11T16:19:48.404Z,2.73
2018-09-11T16:22:16.856Z,2.43
2018-09-11T16:24:45.351Z,2.30
2018-09-11T16:27:13.830Z,2.80
2018-09-11T16:29:42.292Z,2.57
2018-09-11T16:32:11.507Z,2.20
2018-09-11T16:34:40.240Z,2.73
2018-09-11T16:37:08.692Z,2.90
2018-09-11T16:39:37.211Z,2.80
2018-09-11T16:42:05.700Z,3.10
2018-09-11T16:44:34.131Z,2.67
2018-09-11T16:47:02.579Z,2.53
2018-09-11T16:49:31.012Z,2.80
2018-09-11T16:51:59.433Z,2.97
2018-09-11T16:54:27.904Z,2.60
2018-09-11T16:56:56.339Z,2.53
2018-09-11T16:59:24.800Z,2.47
2018-09-11T17:01:53.253Z,2.90
2018-09-11T17:04:21.713Z,2.70
2018-09-11T17:06:50.188Z,5.80
2018-09-11T17:09:18.668Z,24.80
2018-09-11T17:11:47.091Z,2.87
2018-09-11T17:14:15.516Z,3.23
2018-09-11T17:16:43.972Z,2.80
2018-09-11T17:19:12.404Z,2.80
2018-09-11T17:21:40.854Z,2.80
2018-09-11T17:24:09.271Z,3.07
2018-09-11T17:26:37.751Z,2.93
2018-09-11T17:29:06.228Z,2.90
2018-09-11T17:31:34.663Z,2.83
2018-09-11T17:34:03.123Z,3.43
2018-09-11T17:36:31.556Z,3.40
2018-09-11T17:39:00.024Z,2.80
2018-09-11T17:41:28.503Z,2.80
2018-09-11T17:43:56.968Z,2.80
2018-09-11T17:46:25.412Z,2.53
2018-09-11T17:48:53.936Z,2.87
2018-09-11T17:51:22.331Z,3.00
2018-09-11T17:53:50.756Z,3.17
2018-09-11T17:56:19.215Z,2.67
2018-09-11T17:58:47.662Z,3.40
2018-09-11T18:01:16.124Z,3.17
2018-09-11T18:03:44.608Z,2.60
2018-09-11T18:06:13.079Z,3.10
2018-09-11T18:08:41.571Z,2.90
2018-09-11T18:11:09.972Z,3.10
2018-09-11T18:13:38.411Z,3.17
2018-09-11T18:16:06.957Z,3.00
2018-09-11T18:18:35.427Z,3.00
2018-09-11T18:21:03.856Z,3.23
2018-09-11T18:23:32.364Z,2.73
2018-09-11T18:26:00.789Z,2.83
2018-09-11T18:28:29.243Z,3.10
2018-09-11T18:30:57.679Z,3.00
2018-09-11T18:33:26.115Z,8.00
2018-09-11T18:35:54.572Z,3.70
2018-09-11T18:38:23.000Z,2.90
2018-09-11T18:40:51.460Z,2.97
2018-09-11T18:43:19.880Z,3.10
2018-09-11T18:45:48.331Z,3.20
2018-09-11T18:48:16.767Z,3.00
2018-09-11T18:50:45.228Z,3.00
2018-09-11T18:53:13.663Z,3.20
2018-09-11T18:55:42.096Z,3.07
2018-09-11T18:58:10.615Z,3.90
2018-09-11T19:00:39.128Z,3.53
2018-09-11T19:03:07.598Z,3.00
2018-09-11T19:05:36.028Z,2.80
2018-09-11T19:08:04.744Z,2.90
2018-09-11T19:10:33.176Z,3.70
2018-09-11T19:13:01.612Z,2.90
2018-09-11T19:15:30.116Z,3.10
2018-09-11T19:17:58.559Z,2.93
2018-09-11T19:20:27.032Z,2.90
2018-09-11T19:22:55.449Z,3.13
2018-09-11T19:25:23.908Z,3.40
2018-09-11T19:27:52.355Z,3.47
2018-09-11T19:30:20.820Z,3.27
2018-09-11T19:32:49.255Z,3.60
2018-09-11T19:35:18.072Z,3.20
2018-09-11T19:37:46.548Z,3.60
2018-09-11T19:40:15.041Z,3.47
2018-09-11T19:42:43.480Z,3.23
2018-09-11T19:45:11.990Z,3.63
2018-09-11T19:47:40.773Z,3.40
2018-09-11T19:50:09.400Z,3.43
2018-09-11T19:52:37.803Z,3.40
2018-09-11T19:55:06.433Z,3.57
2018-09-11T19:57:34.939Z,3.17
2018-09-11T20:00:03.501Z,5.90
2018-09-11T20:02:32.245Z,11.00
2018-09-11T20:05:00.745Z,3.20
2018-09-11T20:07:29.768Z,3.20
2018-09-11T20:09:58.625Z,3.30
2018-09-11T20:12:27.089Z,3.40
2018-09-11T20:14:55.572Z,3.43
2018-09-11T20:17:24.035Z,3.40
2018-09-11T20:19:52.524Z,3.00
2018-09-11T20:22:20.992Z,3.40
2018-09-11T20:24:49.435Z,3.40
2018-09-11T20:27:18.953Z,3.40
2018-09-11T20:29:47.407Z,3.23
2018-09-11T20:32:15.888Z,3.80
2018-09-11T20:34:44.428Z,3.80
2018-09-11T20:37:12.898Z,3.40
2018-09-11T20:39:41.353Z,3.37
2018-09-11T20:42:09.806Z,3.67
2018-09-11T20:44:38.267Z,3.47
2018-09-11T20:47:06.717Z,3.53
2018-09-11T20:49:35.152Z,3.70
2018-09-11T20:52:03.643Z,3.73
2018-09-11T20:54:32.114Z,4.00
2018-09-11T20:57:00.567Z,3.70
2018-09-11T20:59:29.027Z,3.70
2018-09-11T21:01:57.468Z,3.70
2018-09-11T21:04:25.920Z,4.10
2018-09-11T21:06:54.356Z,4.00
2018-09-11T21:09:22.888Z,3.93
2018-09-11T21:11:51.312Z,3.90
2018-09-11T21:14:19.740Z,3.60
2018-09-11T21:16:48.218Z,4.30
2018-09-11T21:19:16.644Z,4.33
2018-09-11T21:21:45.124Z,4.33
2018-09-11T21:24:13.552Z,4.90
2018-09-11T21:26:42.003Z,4.40
2018-09-11T21:29:10.428Z,4.37
2018-09-11T21:31:38.855Z,4.37
2018-09-11T21:34:07.311Z,4.67
2018-09-11T21:36:35.739Z,4.47
2018-09-11T21:39:05.832Z,4.33
2018-09-11T21:41:34.268Z,4.50
2018-09-11T21:44:02.730Z,4.30
2018-09-11T21:46:31.164Z,4.43
2018-09-11T21:48:59.613Z,4.50
2018-09-11T21:51:28.041Z,4.20
2018-09-11T21:53:56.477Z,4.10
2018-09-11T21:56:25.004Z,4.00
2018-09-11T21:58:53.456Z,4.17
2018-09-11T22:01:27.328Z,4.00
2018-09-11T22:03:55.761Z,3.90
2018-09-11T22:06:24.458Z,3.80
2018-09-11T22:08:52.888Z,3.80
2018-09-11T22:11:21.335Z,3.93
2018-09-11T22:13:49.775Z,4.23
2018-09-11T22:16:18.205Z,3.70
2018-09-11T22:18:46.672Z,4.10
2018-09-11T22:21:15.225Z,3.60
2018-09-11T22:23:43.664Z,4.10
2018-09-11T22:26:12.098Z,3.80
2018-09-11T22:28:40.553Z,4.27
2018-09-11T22:31:08.985Z,4.13
2018-09-11T22:33:37.431Z,4.17
2018-09-11T22:36:05.869Z,4.10
2018-09-11T22:38:34.315Z,4.57
2018-09-11T22:41:02.738Z,4.27
2018-09-11T22:43:31.223Z,4.30
2018-09-11T22:46:00.095Z,4.27
2018-09-11T22:48:28.651Z,4.90
2018-09-11T22:50:57.130Z,4.47
2018-09-11T22:53:25.580Z,4.30
2018-09-11T22:55:54.013Z,4.47
2018-09-11T22:58:22.455Z,4.10
2018-09-11T23:00:50.898Z,4.10
2018-09-11T23:03:19.444Z,4.47
2018-09-11T23:05:47.876Z,4.73
2018-09-11T23:08:16.337Z,4.00
2018-09-11T23:10:44.759Z,4.50
2018-09-11T23:13:13.215Z,4.07
2018-09-11T23:15:41.664Z,3.70
2018-09-11T23:18:10.127Z,4.27
2018-09-11T23:20:38.559Z,4.10
2018-09-11T23:23:07.008Z,4.40
2018-09-11T23:25:35.453Z,4.47
2018-09-11T23:28:03.916Z,4.23
2018-09-11T23:30:32.362Z,4.57
2018-09-11T23:33:00.788Z,3.90
2018-09-11T23:35:29.237Z,3.90
2018-09-11T23:37:57.960Z,3.57
2018-09-11T23:40:26.412Z,4.00
2018-09-11T23:42:55.131Z,3.43
2018-09-11T23:45:23.592Z,4.17
2018-09-11T23:47:52.015Z,3.80
2018-09-11T23:50:20.445Z,3.50
2018-09-11T23:52:48.895Z,4.50
2018-09-11T23:55:17.347Z,3.87
2018-09-11T23:57:45.775Z,4.30
